Sweet Lake, Louisiana
Current Conditions -  °F | °C
As of 12:53 PM on Monday 20 Oct 2014 (Local Time) from KLCH Reporting Station
Clear Clear  
Wind Chill: 78°   Ceiling: Unl
Heat Index: 79°   Visibility: 10mi
Dew Point: 57°   Wind: 6mph
Humidity: 48%   Direction: NA
Pressure: 30.05"   Gusts: NA
Location:  30.1766°N, 93.2305°W
Report Text: KLCH 201753Z VRB05KT 10SM CLR 26/14 A3005 RMK AO2 SLP182 T02560139 10256 20133 58010
Loading
Personal Weather Stations






























Interactive Weather Map
Tropical Storm Tracking
New forecast layout! Learn more

10-Day Weather Forecast

Advertisements
Track Severe Weather on mobile